Time;durP1;ratioP1;P1;durP2;ratioP2;P2;SDS_P1;SDS_P2;PMS_P1;PMS_P2;Temp;Humidity;BMP_temperature;BMP_pressure;BME280_temperature;BME280_humidity;BME280_pressure;Samples;Min_cycle;Max_cycle;Signal;HPM_P1;HPM_P2
2024/01/21 00:00:12;;;;;;;5.55;4.65;;;;;;;3.55;48.96;102957.13;5009264;28;20052;-80
2024/01/21 00:02:40;;;;;;;6.15;4.82;;;;;;;3.55;48.44;102957.97;5013248;28;20057;-79
2024/01/21 00:05:14;;;;;;;8.15;5.03;;;;;;;3.66;48.46;102975.25;4971821;28;20526;-81
2024/01/21 00:07:42;;;;;;;7.65;5.32;;;;;;;3.61;48.44;102956.97;4999727;28;20412;-81
2024/01/21 00:10:09;;;;;;;8.95;5.18;;;;;;;3.38;48.50;102915.47;4968680;28;20784;-81
2024/01/21 00:12:37;;;;;;;8.55;4.90;;;;;;;3.63;48.10;102961.28;4968033;28;20508;-81
2024/01/21 00:15:08;;;;;;;4.55;4.15;;;;;;;3.66;48.41;102960.34;4984073;28;20060;-80
2024/01/21 00:17:41;;;;;;;5.00;4.05;;;;;;;3.62;48.20;102961.34;4967351;28;20479;-82
2024/01/21 00:20:11;;;;;;;6.03;4.13;;;;;;;3.57;48.49;102945.69;4968854;28;20141;-80
2024/01/21 00:22:40;;;;;;;9.35;5.28;;;;;;;3.48;49.56;102945.88;4969134;28;20037;-81
2024/01/21 00:25:10;;;;;;;5.80;4.25;;;;;;;3.63;49.31;102955.19;4968284;28;20048;-79
2024/01/21 00:27:38;;;;;;;6.75;4.20;;;;;;;3.36;47.55;102888.38;4953300;28;20142;-81
2024/01/21 00:30:06;;;;;;;5.82;4.22;;;;;;;3.71;47.04;102950.59;4968285;28;20055;-80
2024/01/21 00:32:32;;;;;;;9.13;4.25;;;;;;;3.66;47.60;102949.00;4968895;28;20437;-80
2024/01/21 00:35:04;;;;;;;5.03;3.90;;;;;;;3.60;47.30;102947.38;4961121;28;20497;-82
2024/01/21 00:37:31;;;;;;;6.72;3.97;;;;;;;3.71;47.77;102970.78;4999263;28;20053;-81
2024/01/21 00:40:02;;;;;;;5.10;4.30;;;;;;;3.76;46.90;102974.16;4985421;28;20368;-80
2024/01/21 00:42:29;;;;;;;6.45;5.00;;;;;;;3.80;47.01;102974.06;4971716;28;20131;-80
2024/01/21 00:44:55;;;;;;;7.45;4.38;;;;;;;3.68;47.38;102953.31;4973573;28;20053;-80
2024/01/21 00:47:22;;;;;;;7.55;4.15;;;;;;;3.71;46.62;102960.25;4957006;28;20090;-80
2024/01/21 00:49:51;;;;;;;7.18;4.30;;;;;;;3.70;47.15;102969.91;4957176;28;20168;-81
2024/01/21 00:52:23;;;;;;;7.75;4.57;;;;;;;3.54;46.88;102942.25;4978111;28;20088;-82
2024/01/21 00:54:50;;;;;;;4.60;4.15;;;;;;;3.80;47.44;102988.97;4970658;28;20056;-80
2024/01/21 00:57:16;;;;;;;6.03;4.30;;;;;;;3.66;47.66;102985.78;4974565;28;20057;-80
2024/01/21 00:59:43;;;;;;;4.88;3.90;;;;;;;3.35;47.50;102941.78;4972876;28;20077;-81
2024/01/21 01:02:18;;;;;;;4.95;4.18;;;;;;;3.61;47.39;102989.34;4981709;28;20056;-82
2024/01/21 01:04:45;;;;;;;10.40;4.32;;;;;;;3.61;47.88;102978.84;5006638;28;20510;-79
2024/01/21 01:07:13;;;;;;;7.35;4.30;;;;;;;3.53;47.03;102964.16;4972744;28;20053;-80
2024/01/21 01:09:41;;;;;;;4.63;3.78;;;;;;;3.59;48.14;102993.81;4973044;28;20091;-80
2024/01/21 01:12:09;;;;;;;4.20;3.75;;;;;;;3.24;48.93;102946.41;4974307;28;20063;-79
2024/01/21 01:14:41;;;;;;;7.70;3.88;;;;;;;3.59;47.78;102993.81;4971213;28;20048;-79
2024/01/21 01:17:08;;;;;;;6.50;4.32;;;;;;;3.42;47.68;102951.25;4955574;28;20471;-82
2024/01/21 01:19:35;;;;;;;5.70;4.03;;;;;;;3.34;49.13;102947.94;4970318;28;20077;-81
2024/01/21 01:22:02;;;;;;;6.32;4.10;;;;;;;3.16;49.53;102926.44;4958223;28;20052;-82
2024/01/21 01:24:29;;;;;;;6.00;4.45;;;;;;;3.46;51.21;102975.69;4993469;28;20231;-80
2024/01/21 01:26:55;;;;;;;6.47;4.25;;;;;;;3.40;49.08;102976.72;4969867;28;20095;-80
2024/01/21 01:29:27;;;;;;;4.95;3.70;;;;;;;3.12;48.08;102914.25;4963724;28;20111;-81
2024/01/21 01:31:56;;;;;;;7.93;3.72;;;;;;;3.59;47.89;102985.91;4987699;28;20053;-81
2024/01/21 01:34:23;;;;;;;5.28;3.75;;;;;;;3.60;46.37;102979.75;4972230;28;20512;-81
2024/01/21 01:36:49;;;;;;;5.53;3.42;;;;;;;3.56;46.53;102964.94;4986196;28;20457;-81
2024/01/21 01:39:16;;;;;;;8.48;3.90;;;;;;;3.77;46.12;103004.81;4988982;28;20087;-80
2024/01/21 01:41:43;;;;;;;5.35;3.42;;;;;;;3.59;46.13;102969.28;4957034;28;20406;-81
2024/01/21 01:44:10;;;;;;;3.58;3.17;;;;;;;3.64;47.58;102988.41;4992199;28;20045;-80
2024/01/21 01:46:41;;;;;;;4.68;3.33;;;;;;;3.32;47.67;102929.56;4979873;28;20053;-82
2024/01/21 01:49:12;;;;;;;6.45;3.63;;;;;;;3.35;47.45;102937.41;5007292;28;20052;-80
2024/01/21 01:51:39;;;;;;;7.65;3.50;;;;;;;3.43;48.47;102947.75;4990226;28;20087;-81
2024/01/21 01:54:09;;;;;;;5.20;3.20;;;;;;;3.59;48.65;102988.53;5000398;28;20255;-81
2024/01/21 01:56:37;;;;;;;5.43;3.08;;;;;;;3.50;48.75;102986.13;4989467;28;20549;-80
2024/01/21 01:59:09;;;;;;;6.53;3.72;;;;;;;3.53;49.27;102991.28;5005743;28;20040;-79
2024/01/21 02:01:39;;;;;;;5.45;3.47;;;;;;;3.42;49.35;102961.75;4992155;28;20052;-81
2024/01/21 02:04:15;;;;;;;5.85;4.10;;;;;;;3.38;52.27;102975.88;5003582;28;20578;-80
2024/01/21 02:06:46;;;;;;;6.32;3.63;;;;;;;3.31;52.59;102972.50;5002836;28;20052;-81
2024/01/21 02:09:20;;;;;;;4.38;3.33;;;;;;;3.32;51.55;102978.59;4978141;28;20044;-81
2024/01/21 02:11:47;;;;;;;6.25;3.67;;;;;;;2.78;54.28;102900.94;4981918;28;20044;-80
2024/01/21 02:14:13;;;;;;;5.38;3.45;;;;;;;3.26;52.99;102986.63;4982369;28;20052;-79
2024/01/21 02:16:40;;;;;;;6.13;3.30;;;;;;;3.22;53.26;102981.41;4978489;28;20443;-82
2024/01/21 02:19:25;;;;;;;5.63;3.65;;;;;;;2.89;53.59;102934.84;4975555;28;20118;-82
2024/01/21 02:21:53;;;;;;;4.68;3.35;;;;;;;2.59;53.66;102894.31;5009125;28;20072;-81
2024/01/21 02:24:20;;;;;;;3.75;3.38;;;;;;;3.01;54.27;102958.25;4984075;28;20247;-83
2024/01/21 02:26:49;;;;;;;3.85;3.45;;;;;;;3.10;53.73;102970.28;4985609;28;20568;-81
2024/01/21 02:29:17;;;;;;;5.53;3.30;;;;;;;2.78;54.42;102929.81;4984841;28;20057;-82
2024/01/21 02:31:46;;;;;;;4.53;3.10;;;;;;;2.97;55.50;102964.44;4992886;28;20727;-81
2024/01/21 02:34:13;;;;;;;9.02;3.58;;;;;;;2.73;54.08;102932.50;4966405;28;20049;-82
2024/01/21 02:36:44;;;;;;;5.07;3.50;;;;;;;2.71;54.96;102915.06;4970965;28;20567;-82
2024/01/21 02:39:11;;;;;;;4.90;3.78;;;;;;;2.62;54.65;102908.25;4965298;28;20049;-81
2024/01/21 02:41:37;;;;;;;9.88;4.47;;;;;;;2.59;55.46;102889.94;4973586;28;20049;-81
2024/01/21 02:44:04;;;;;;;7.32;3.55;;;;;;;3.19;53.27;102946.50;4972073;28;20521;-84
2024/01/21 02:46:34;;;;;;;5.45;3.92;;;;;;;3.20;52.18;102959.59;4988859;28;20045;-81
2024/01/21 02:49:01;;;;;;;9.68;3.50;;;;;;;2.93;52.62;102926.03;4970584;28;20084;-81
2024/01/21 02:51:27;;;;;;;5.38;3.40;;;;;;;2.92;52.87;102938.28;4965679;28;20166;-81
2024/01/21 02:53:55;;;;;;;6.78;3.55;;;;;;;2.74;54.62;102922.88;4972422;28;20209;-80
2024/01/21 02:56:23;;;;;;;6.13;3.60;;;;;;;2.63;54.82;102923.09;4970402;28;20450;-79
2024/01/21 02:58:51;;;;;;;6.88;3.50;;;;;;;2.82;53.80;102921.00;4971077;28;20901;-80
2024/01/21 03:01:26;;;;;;;6.68;4.10;;;;;;;2.84;54.00;102920.94;4983728;28;20128;-81
2024/01/21 03:03:54;;;;;;;5.07;3.60;;;;;;;2.77;56.66;102936.81;5009005;28;20080;-79
2024/01/21 03:06:22;;;;;;;6.72;4.20;;;;;;;2.76;56.89;102936.84;4999487;28;20056;-81
2024/01/21 03:08:49;;;;;;;6.20;4.03;;;;;;;2.69;54.89;102891.50;4990153;28;20048;-80
2024/01/21 03:11:16;;;;;;;7.05;3.67;;;;;;;3.00;54.02;102938.13;5006766;28;20145;-80
2024/01/21 03:13:47;;;;;;;5.88;3.90;;;;;;;2.91;54.17;102912.06;4998496;28;20106;-81
2024/01/21 03:16:16;;;;;;;7.38;4.07;;;;;;;2.83;55.58;102913.97;4992504;28;20087;-81
2024/01/21 03:18:43;;;;;;;5.93;3.60;;;;;;;2.50;57.53;102895.34;4991307;28;20056;-80
2024/01/21 03:21:10;;;;;;;6.38;3.70;;;;;;;2.48;58.25;102899.78;4999421;28;20501;-79
2024/01/21 03:23:37;;;;;;;12.10;4.28;;;;;;;1.83;59.00;102798.72;4990549;28;20486;-80
2024/01/21 03:26:07;;;;;;;7.10;4.03;;;;;;;2.50;59.20;102926.81;4986725;28;20041;-80
2024/01/21 03:28:36;;;;;;;4.85;3.58;;;;;;;2.42;59.63;102926.09;4971521;28;20049;-81
2024/01/21 03:31:03;;;;;;;7.50;4.20;;;;;;;2.09;59.99;102881.25;4992601;28;20049;-81
2024/01/21 03:33:30;;;;;;;4.88;3.83;;;;;;;2.33;61.52;102934.97;5002365;28;20065;-79
2024/01/21 03:35:57;;;;;;;6.00;4.00;;;;;;;2.21;59.90;102928.22;4987294;28;20049;-78
2024/01/21 03:38:24;;;;;;;5.57;4.25;;;;;;;1.70;57.60;102839.97;4971149;28;20076;-79
2024/01/21 03:41:00;;;;;;;6.50;3.80;;;;;;;2.15;58.60;102899.47;4974615;28;20363;-81
2024/01/21 03:43:26;;;;;;;7.22;4.68;;;;;;;2.47;57.15;102926.88;4994808;28;20810;-80
2024/01/21 03:45:53;;;;;;;6.43;3.97;;;;;;;2.56;56.96;102930.19;5005815;28;20139;-80
2024/01/21 03:48:24;;;;;;;5.65;4.10;;;;;;;2.44;58.79;102922.56;4978575;28;20278;-82
2024/01/21 03:50:58;;;;;;;6.45;3.95;;;;;;;2.29;59.95;102918.44;4991636;28;20124;-82
2024/01/21 03:53:25;;;;;;;6.30;3.83;;;;;;;2.19;58.53;102911.63;4991038;28;20167;-81
2024/01/21 03:55:51;;;;;;;5.43;4.18;;;;;;;2.25;57.62;102916.75;4990782;28;20067;-81
2024/01/21 03:58:18;;;;;;;7.50;4.32;;;;;;;2.18;58.95;102925.63;4972525;28;20430;-81
2024/01/21 04:00:48;;;;;;;4.85;3.75;;;;;;;1.98;60.07;102901.50;4979222;28;20049;-82
2024/01/21 04:03:15;;;;;;;4.88;3.72;;;;;;;1.93;61.30;102905.06;4985151;28;20353;-81
2024/01/21 04:05:48;;;;;;;8.73;4.15;;;;;;;2.01;61.24;102928.50;4975548;28;20048;-82
2024/01/21 04:08:21;;;;;;;5.18;3.78;;;;;;;1.86;61.03;102908.66;4979299;28;20048;-82
2024/01/21 04:13:36;;;;;;;5.18;4.07;;;;;;;1.98;60.59;102932.94;5011424;28;20574;-78
2024/01/21 04:16:07;;;;;;;7.10;3.85;;;;;;;0.46;59.45;102678.72;5031767;28;20056;-81
2024/01/21 04:18:41;;;;;;;9.20;3.80;;;;;;;1.80;59.15;102898.31;5033289;28;20488;-82
2024/01/21 04:21:10;;;;;;;5.63;3.63;;;;;;;1.90;59.29;102910.34;5019441;28;20522;-83
2024/01/21 04:23:37;;;;;;;5.20;3.70;;;;;;;2.13;59.21;102925.69;5030087;28;20044;-81
2024/01/21 04:26:03;;;;;;;6.18;4.07;;;;;;;1.30;60.31;102813.53;5023314;28;20048;-81
2024/01/21 04:28:30;;;;;;;5.03;4.07;;;;;;;0.89;61.00;102753.97;5049879;28;20068;-82
2024/01/21 04:30:57;;;;;;;6.68;4.57;;;;;;;1.71;61.14;102901.91;5045916;28;20067;-81
2024/01/21 04:33:26;;;;;;;4.20;3.78;;;;;;;1.84;61.51;102915.69;5033788;28;20144;-81
2024/01/21 04:35:53;;;;;;;3.85;3.33;;;;;;;1.76;60.65;102930.66;5027077;28;20867;-79
2024/01/21 04:38:25;;;;;;;5.57;3.75;;;;;;;1.71;60.84;102930.72;5029404;28;20149;-81
2024/01/21 04:40:55;;;;;;;6.82;3.90;;;;;;;1.73;59.76;102928.09;5027593;28;20304;-81
2024/01/21 04:43:21;;;;;;;7.55;4.53;;;;;;;1.69;60.70;102919.41;5027089;28;20044;-82
2024/01/21 04:45:48;;;;;;;3.72;3.38;;;;;;;1.79;60.51;102932.34;5028670;28;20052;-82
2024/01/21 04:48:15;;;;;;;6.75;3.65;;;;;;;1.71;59.45;102890.56;5023492;28;20041;-81
2024/01/21 04:50:42;;;;;;;5.95;3.22;;;;;;;1.91;60.50;102916.47;5028116;28;20044;-81
2024/01/21 04:53:09;;;;;;;5.07;3.60;;;;;;;1.83;60.85;102913.97;5021819;28;20434;-81
2024/01/21 04:55:41;;;;;;;4.63;3.30;;;;;;;1.74;60.58;102929.81;5024124;28;20461;-82
2024/01/21 04:58:13;;;;;;;6.95;3.40;;;;;;;1.55;62.14;102908.25;5021941;28;20747;-82
2024/01/21 05:00:40;;;;;;;6.45;3.30;;;;;;;1.54;60.37;102905.69;5028313;28;20068;-82
2024/01/21 05:03:06;;;;;;;6.00;3.63;;;;;;;1.36;60.70;102865.78;5017481;28;20052;-81
2024/01/21 05:05:33;;;;;;;5.00;3.58;;;;;;;1.67;60.13;102913.31;5027039;28;20473;-82
2024/01/21 05:08:00;;;;;;;3.92;3.35;;;;;;;1.80;60.57;102944.59;5029112;28;20045;-82
2024/01/21 05:10:27;;;;;;;4.22;3.10;;;;;;;1.68;60.85;102935.16;5032753;28;20450;-81
2024/01/21 05:12:53;;;;;;;6.00;3.55;;;;;;;1.64;60.91;102955.25;5027529;28;20486;-82
2024/01/21 05:15:22;;;;;;;4.22;3.35;;;;;;;1.44;60.04;102916.28;5026319;28;20475;-83
2024/01/21 05:17:56;;;;;;;;;;;;;;;1.65;61.45;102953.50;5022461;28;20045;-83
2024/01/21 05:20:23;;;;;;;6.38;4.03;;;;;;;1.52;60.92;102928.38;5018478;28;19924;-80
2024/01/21 05:22:54;;;;;;;5.93;4.03;;;;;;;1.09;60.92;102869.63;5024243;28;20059;-84
2024/01/21 05:25:21;;;;;;;11.13;4.53;;;;;;;1.42;60.35;102915.41;5024952;28;20434;-82
2024/01/21 05:27:50;;;;;;;7.47;3.78;;;;;;;1.66;61.83;102942.16;5022601;28;20041;-83
2024/01/21 05:30:17;;;;;;;6.68;4.15;;;;;;;1.68;60.93;102927.28;5029717;28;20041;-81
2024/01/21 05:32:46;;;;;;;6.13;4.60;;;;;;;1.75;61.85;102947.28;5024978;28;20203;-80
2024/01/21 05:35:16;;;;;;;5.57;4.07;;;;;;;1.56;62.77;102919.63;5017854;28;20053;-79
2024/01/21 05:37:47;;;;;;;6.80;3.90;;;;;;;1.47;62.95;102921.44;5028244;28;20329;-81
2024/01/21 05:40:15;;;;;;;7.00;4.78;;;;;;;1.39;62.78;102922.47;5024685;28;20380;-80
2024/01/21 05:42:42;;;;;;;11.80;4.13;;;;;;;1.23;62.38;102911.31;5026695;28;20059;-80
2024/01/21 05:45:09;;;;;;;5.95;4.13;;;;;;;1.29;62.46;102929.56;5025670;28;20085;-81
2024/01/21 05:47:36;;;;;;;6.90;4.82;;;;;;;0.90;62.81;102871.63;5024375;28;20052;-80
2024/01/21 05:50:03;;;;;;;4.70;4.07;;;;;;;0.79;62.76;102855.19;5025556;28;20048;-79
2024/01/21 05:52:30;;;;;;;6.97;4.22;;;;;;;1.25;63.46;102931.34;5018629;28;20053;-79
2024/01/21 05:54:57;;;;;;;5.10;3.80;;;;;;;1.17;63.51;102921.88;5033206;28;20340;-80
2024/01/21 05:57:24;;;;;;;6.38;4.13;;;;;;;1.33;62.64;102949.56;5027129;28;20581;-80
2024/01/21 05:59:53;;;;;;;7.63;4.65;;;;;;;1.32;63.31;102963.53;5011027;28;20065;-81
2024/01/21 06:02:19;;;;;;;8.82;4.22;;;;;;;1.11;61.89;102914.94;5018779;28;20088;-80
2024/01/21 06:04:46;;;;;;;6.90;4.30;;;;;;;1.39;61.79;102954.72;5015049;28;20049;-80
2024/01/21 06:07:15;;;;;;;5.35;4.38;;;;;;;1.23;60.57;102935.72;5027396;28;20052;-79
2024/01/21 06:09:42;;;;;;;5.60;4.78;;;;;;;1.18;60.65;102940.16;5029132;28;20118;-79
2024/01/21 06:12:09;;;;;;;7.53;4.65;;;;;;;0.98;60.33;102919.47;5026552;28;20314;-80
2024/01/21 06:14:36;;;;;;;6.40;4.18;;;;;;;1.10;60.92;102942.00;5024493;28;20485;-80
2024/01/21 06:17:04;;;;;;;6.23;5.33;;;;;;;1.15;60.97;102957.66;5029808;28;20424;-82
2024/01/21 06:19:31;;;;;;;7.07;4.25;;;;;;;0.97;61.54;102941.28;5032255;28;20068;-81
2024/01/21 06:21:58;;;;;;;7.33;4.57;;;;;;;0.85;61.04;102918.75;5024150;28;20474;-81
2024/01/21 06:24:25;;;;;;;8.40;4.87;;;;;;;0.86;61.65;102930.06;5028094;28;20495;-81
2024/01/21 06:26:54;;;;;;;5.93;4.25;;;;;;;0.50;61.82;102887.75;5014181;28;20041;-82
2024/01/21 06:29:21;;;;;;;5.20;4.47;;;;;;;0.82;61.11;102937.06;5012554;28;20057;-81
2024/01/21 06:31:48;;;;;;;7.33;4.60;;;;;;;0.77;61.04;102909.25;5021233;28;20314;-80
2024/01/21 06:34:16;;;;;;;7.97;4.38;;;;;;;1.00;61.56;102956.09;5023143;28;20048;-80
2024/01/21 06:36:45;;;;;;;6.30;4.47;;;;;;;1.05;60.52;102954.28;5029669;28;20049;-80
2024/01/21 06:39:11;;;;;;;6.60;4.47;;;;;;;1.08;60.23;102969.06;5042428;28;20056;-82
2024/01/21 06:41:41;;;;;;;5.77;4.63;;;;;;;0.57;60.67;102878.97;5027260;28;20507;-82
2024/01/21 06:44:07;;;;;;;8.20;4.57;;;;;;;0.51;61.30;102879.03;5013731;28;20063;-80
2024/01/21 06:46:35;;;;;;;8.43;5.00;;;;;;;0.94;61.02;102940.44;5027848;28;20052;-82
2024/01/21 06:49:02;;;;;;;7.07;5.07;;;;;;;0.90;61.42;102934.41;5032916;28;20055;-79
2024/01/21 06:51:42;;;;;;;8.33;4.70;;;;;;;0.78;61.54;102924.94;5024253;28;20850;-80
2024/01/21 06:54:10;;;;;;;6.70;4.47;;;;;;;1.13;61.49;102973.34;5028921;28;20491;-79
2024/01/21 06:56:37;;;;;;;8.05;5.30;;;;;;;1.19;61.05;102964.56;5012961;28;20333;-80
2024/01/21 06:59:06;;;;;;;12.10;4.83;;;;;;;0.78;61.26;102887.47;5026535;28;20049;-83
2024/01/21 07:01:32;;;;;;;8.07;4.22;;;;;;;1.18;62.54;102983.78;5019386;28;20442;-81
2024/01/21 07:04:00;;;;;;;8.55;4.35;;;;;;;0.97;62.84;102957.00;5032888;28;20484;-80
2024/01/21 07:06:28;;;;;;;4.90;4.35;;;;;;;1.18;62.86;102971.56;5022785;28;20141;-81
2024/01/21 07:08:55;;;;;;;6.68;4.32;;;;;;;1.01;63.50;102942.97;5026108;28;20041;-82
2024/01/21 07:11:22;;;;;;;6.43;5.00;;;;;;;0.98;63.80;102940.41;5015616;28;20053;-81
2024/01/21 07:13:49;;;;;;;8.20;4.90;;;;;;;1.26;62.77;102968.84;5027464;28;20449;-80
2024/01/21 07:16:16;;;;;;;8.75;4.78;;;;;;;1.10;62.80;102941.16;5037335;28;20041;-80
2024/01/21 07:18:42;;;;;;;9.55;4.57;;;;;;;1.01;63.50;102931.66;5035995;28;20044;-82
2024/01/21 07:21:10;;;;;;;7.82;4.93;;;;;;;1.27;62.56;102934.81;5028897;28;20084;-82
2024/01/21 07:23:38;;;;;;;8.63;5.15;;;;;;;1.66;61.90;102974.44;5026161;28;20590;-80
2024/01/21 07:26:05;;;;;;;7.68;5.30;;;;;;;1.52;62.46;102962.41;5027186;28;20274;-81
2024/01/21 07:28:32;;;;;;;8.02;5.43;;;;;;;1.21;63.43;102952.34;5030413;28;20509;-78
2024/01/21 07:30:59;;;;;;;6.45;4.82;;;;;;;1.13;63.79;102936.72;5024111;28;20320;-80
2024/01/21 07:33:26;;;;;;;8.60;6.00;;;;;;;1.01;64.71;102916.81;5013396;28;20168;-83
2024/01/21 07:35:53;;;;;;;10.88;6.07;;;;;;;1.18;64.90;102955.00;5032547;28;20052;-83
2024/01/21 07:38:21;;;;;;;8.50;5.47;;;;;;;1.10;64.25;102943.78;5025697;28;20071;-83
2024/01/21 07:40:48;;;;;;;10.32;6.63;;;;;;;0.76;65.17;102873.53;5029639;28;20049;-82
2024/01/21 07:43:16;;;;;;;8.20;5.35;;;;;;;1.16;65.45;102946.28;5028817;28;20434;-81
2024/01/21 07:45:42;;;;;;;10.83;6.10;;;;;;;1.19;65.11;102941.00;5028960;28;20052;-82
2024/01/21 07:48:10;;;;;;;8.85;6.25;;;;;;;1.10;64.67;102915.00;5024109;28;20194;-82
2024/01/21 07:50:37;;;;;;;14.10;6.32;;;;;;;1.47;65.91;102986.03;5028392;28;20053;-81
2024/01/21 07:53:05;;;;;;;9.73;6.43;;;;;;;1.27;65.08;102944.41;5028770;28;20545;-81
2024/01/21 07:55:32;;;;;;;11.15;6.15;;;;;;;1.54;65.17;102973.75;5029206;28;20178;-81
2024/01/21 07:57:59;;;;;;;9.57;5.97;;;;;;;1.05;65.24;102908.06;5025745;28;20473;-81
2024/01/21 08:00:26;;;;;;;11.32;6.03;;;;;;;0.73;64.98;102842.19;5025652;28;20557;-81
2024/01/21 08:02:56;;;;;;;8.60;5.93;;;;;;;1.56;65.03;102977.22;5032240;28;20045;-80
2024/01/21 08:05:23;;;;;;;12.17;6.03;;;;;;;1.30;64.68;102923.44;5031190;28;20045;-83
2024/01/21 08:07:51;;;;;;;10.32;5.50;;;;;;;1.20;65.11;102916.59;5033783;28;20053;-82
2024/01/21 08:10:17;;;;;;;9.15;5.35;;;;;;;1.71;64.02;102979.63;5026704;28;20048;-81
2024/01/21 08:12:44;;;;;;;6.68;5.93;;;;;;;1.59;64.29;102950.97;5027040;28;20049;-79
2024/01/21 08:15:15;;;;;;;7.05;5.35;;;;;;;1.47;65.41;102917.97;5032898;28;20450;-82
2024/01/21 08:17:46;;;;;;;8.40;5.78;;;;;;;1.82;64.04;102969.88;5048258;28;20107;-81
2024/01/21 08:20:13;;;;;;;10.50;6.25;;;;;;;1.97;63.69;102979.25;5029284;28;20340;-81
2024/01/21 08:22:43;;;;;;;13.23;5.80;;;;;;;1.63;63.23;102902.94;5026592;28;20056;-82
2024/01/21 08:25:10;;;;;;;8.15;5.57;;;;;;;2.18;64.02;102992.91;5030404;28;20041;-81
2024/01/21 08:27:37;;;;;;;8.70;4.78;;;;;;;1.93;63.19;102931.25;5024832;28;20053;-82
2024/01/21 08:30:05;;;;;;;8.30;6.03;;;;;;;2.01;62.93;102948.63;5030103;28;20138;-81
2024/01/21 08:32:32;;;;;;;7.28;5.18;;;;;;;2.32;62.21;102972.56;5031428;28;20060;-81
2024/01/21 08:35:02;;;;;;;6.72;4.85;;;;;;;2.21;62.02;102941.31;5027510;28;20440;-82
2024/01/21 08:37:30;;;;;;;7.78;5.57;;;;;;;2.08;60.21;102903.09;5027523;28;20076;-82
2024/01/21 08:39:59;;;;;;;8.13;4.88;;;;;;;2.21;59.65;102907.25;5034479;28;20045;-81
2024/01/21 08:42:27;;;;;;;7.88;4.90;;;;;;;2.58;60.10;102950.31;5033314;28;20103;-83
2024/01/21 08:44:54;;;;;;;7.38;4.78;;;;;;;2.57;59.46;102933.69;5032708;28;20734;-80
2024/01/21 08:47:21;;;;;;;8.35;5.15;;;;;;;2.93;59.70;102984.59;5034473;28;20549;-81
2024/01/21 08:49:48;;;;;;;10.82;5.47;;;;;;;2.97;60.54;102985.44;5030568;28;20426;-81
2024/01/21 08:52:19;;;;;;;8.52;5.40;;;;;;;2.62;60.36;102907.38;5031043;28;20045;-81
2024/01/21 08:54:47;;;;;;;9.15;5.47;;;;;;;2.74;58.95;102910.66;5033162;28;20041;-81
2024/01/21 08:57:26;;;;;;;7.25;5.63;;;;;;;3.20;58.88;102991.09;5031370;28;20646;-82
2024/01/21 08:59:55;;;;;;;10.50;5.53;;;;;;;3.14;58.70;102977.22;5020237;28;20105;-82
2024/01/21 09:02:23;;;;;;;8.23;5.68;;;;;;;3.32;59.58;102989.09;5032579;28;20114;-81
2024/01/21 09:04:51;;;;;;;9.93;6.45;;;;;;;3.15;58.66;102955.31;5046907;28;20103;-78
2024/01/21 09:07:18;;;;;;;11.05;6.22;;;;;;;3.40;58.85;103010.84;5032958;28;20625;-82
2024/01/21 09:09:50;;;;;;;13.57;7.15;;;;;;;3.15;58.46;102945.69;5028515;28;20106;-81
2024/01/21 09:12:19;;;;;;;8.60;5.63;;;;;;;3.51;57.98;103000.97;5029548;28;20615;-82
2024/01/21 09:14:50;;;;;;;9.13;5.85;;;;;;;3.51;57.55;102994.84;5032421;28;20045;-81
2024/01/21 09:17:18;;;;;;;19.35;7.00;;;;;;;3.12;57.52;102930.00;5011967;28;20056;-79
2024/01/21 09:19:47;;;;;;;11.35;5.90;;;;;;;3.63;57.81;103010.34;5031819;28;20049;-80
2024/01/21 09:22:17;;;;;;;12.25;6.63;;;;;;;3.75;57.93;103023.22;5034337;28;20057;-82
2024/01/21 09:24:46;;;;;;;12.27;5.78;;;;;;;3.61;57.56;102986.72;5026354;28;20037;-80
2024/01/21 09:27:15;;;;;;;16.17;5.65;;;;;;;3.94;56.29;103028.09;5031861;28;20056;-81
2024/01/21 09:29:43;;;;;;;9.60;5.45;;;;;;;4.00;55.85;103033.19;5034490;28;20140;-82
2024/01/21 09:32:12;;;;;;;13.13;5.30;;;;;;;3.93;55.67;103024.59;5032130;28;20045;-82
2024/01/21 09:34:41;;;;;;;14.00;6.57;;;;;;;4.13;56.63;103046.94;5031508;28;20041;-81
2024/01/21 09:37:11;;;;;;;9.27;5.88;;;;;;;3.98;56.75;103011.31;5035189;28;20311;-82
2024/01/21 09:39:39;;;;;;;10.75;5.50;;;;;;;3.85;56.77;102971.31;5033499;28;20502;-81
2024/01/21 09:42:08;;;;;;;11.70;5.13;;;;;;;4.31;55.37;103043.88;5032474;28;20037;-82
2024/01/21 09:44:34;;;;;;;7.35;4.47;;;;;;;4.23;55.17;103011.63;5033194;28;20057;-82
2024/01/21 09:47:02;;;;;;;11.90;4.80;;;;;;;4.46;54.58;103030.34;5032385;28;20072;-84
2024/01/21 09:49:31;;;;;;;9.63;4.95;;;;;;;4.49;54.95;103016.25;5036262;28;20051;-82
2024/01/21 09:52:01;;;;;;;11.45;4.75;;;;;;;4.63;54.66;103036.94;5032799;28;20080;-79
2024/01/21 09:54:29;;;;;;;11.77;4.80;;;;;;;4.63;53.85;103014.13;5037305;28;20065;-82
2024/01/21 09:56:57;;;;;;;8.95;3.85;;;;;;;4.91;53.99;103029.22;5033966;28;20049;-83
2024/01/21 09:59:24;;;;;;;6.97;4.15;;;;;;;5.00;54.48;103052.69;5035964;28;20049;-81
2024/01/21 10:01:51;;;;;;;6.20;3.25;;;;;;;5.02;52.97;103013.13;5049086;28;20167;-82
2024/01/21 10:04:20;;;;;;;7.93;3.55;;;;;;;5.21;51.84;103016.97;5033273;28;20096;-81
2024/01/21 10:06:53;;;;;;;11.43;3.95;;;;;;;5.26;50.89;102990.53;5029432;28;20044;-81
2024/01/21 10:09:24;;;;;;;10.13;3.30;;;;;;;5.40;49.20;103019.13;5017730;28;20067;-82
2024/01/21 10:11:56;;;;;;;7.40;3.38;;;;;;;5.43;50.35;103026.91;5035815;28;20596;-81
2024/01/21 10:14:31;;;;;;;7.25;3.72;;;;;;;5.49;49.39;103026.75;5014624;28;20053;-81
2024/01/21 10:17:03;;;;;;;5.78;3.05;;;;;;;5.55;49.11;103016.88;5030945;28;20067;-83
2024/01/21 10:19:31;;;;;;;4.60;3.22;;;;;;;5.27;47.24;102964.16;5033621;28;20037;-82
2024/01/21 10:22:14;;;;;;;7.80;3.85;;;;;;;5.74;47.74;103029.53;5034395;28;20390;-81
2024/01/21 10:24:49;;;;;;;5.88;3.22;;;;;;;5.68;47.62;103029.69;5030246;28;20037;-81
2024/01/21 10:27:16;;;;;;;3.67;2.50;;;;;;;5.63;47.62;103024.59;5028161;28;20583;-82
2024/01/21 10:29:47;;;;;;;6.65;2.92;;;;;;;5.62;46.98;103022.84;5035323;28;20083;-81
2024/01/21 10:32:16;;;;;;;4.13;3.15;;;;;;;5.53;46.28;103004.66;5032649;28;20048;-78
2024/01/21 10:34:46;;;;;;;5.85;2.80;;;;;;;5.58;45.97;103026.47;5030080;28;20385;-80
2024/01/21 10:37:17;;;;;;;3.78;2.67;;;;;;;5.62;45.42;103008.81;5033742;28;20044;-80
2024/01/21 10:39:48;;;;;;;6.05;3.10;;;;;;;5.61;45.22;103014.97;5023289;28;20568;-82
2024/01/21 10:42:17;;;;;;;5.43;2.85;;;;;;;5.53;45.93;102996.75;5032793;28;20051;-82
2024/01/21 10:44:46;;;;;;;4.95;2.30;;;;;;;5.64;43.08;103009.63;5033897;28;20060;-82
2024/01/21 10:47:15;;;;;;;5.10;2.90;;;;;;;5.55;44.58;102998.44;5025020;28;20325;-81
2024/01/21 10:49:45;;;;;;;7.75;3.10;;;;;;;5.62;45.62;102991.22;5043366;28;20045;-82
2024/01/21 10:52:16;;;;;;;4.63;3.88;;;;;;;5.75;45.88;103008.41;5020216;28;20418;-79
2024/01/21 10:54:46;;;;;;;4.63;3.10;;;;;;;5.71;45.50;103012.03;5026179;28;20104;-82
2024/01/21 10:57:13;;;;;;;3.67;2.60;;;;;;;5.75;44.48;103016.31;5031462;28;20083;-81
2024/01/21 10:59:42;;;;;;;5.28;3.70;;;;;;;5.76;43.87;102994.31;5025197;28;20486;-80
2024/01/21 11:02:13;;;;;;;;;;;;;;;5.83;43.78;103007.31;5022744;28;20465;-81
2024/01/21 11:04:40;;;;;;;4.82;3.08;;;;;;;5.74;44.30;103001.38;5031045;28;19925;-82
2024/01/21 11:07:11;;;;;;;4.88;3.70;;;;;;;5.74;44.49;102964.50;5031938;28;20061;-82
2024/01/21 11:09:40;;;;;;;3.97;2.97;;;;;;;5.88;43.96;102971.13;5030303;28;20053;-81
2024/01/21 11:12:08;;;;;;;7.45;3.55;;;;;;;6.11;43.52;103002.91;5030833;28;20037;-82
2024/01/21 11:14:37;;;;;;;5.18;3.60;;;;;;;5.96;44.39;102995.50;5030295;28;20073;-81
2024/01/21 11:17:11;;;;;;;7.22;4.35;;;;;;;6.05;45.38;103005.75;5032151;28;20053;-80
2024/01/21 11:19:42;;;;;;;12.07;3.78;;;;;;;5.72;45.39;102929.41;5027539;28;20280;-82
2024/01/21 11:22:11;;;;;;;5.28;3.45;;;;;;;6.13;45.02;103003.72;5029534;28;20533;-81
2024/01/21 11:24:43;;;;;;;7.25;4.05;;;;;;;6.05;45.97;102989.94;5032484;28;20056;-80
2024/01/21 11:27:24;;;;;;;7.78;3.90;;;;;;;5.93;45.77;102982.38;5027437;28;20076;-81
2024/01/21 11:29:57;;;;;;;4.40;3.63;;;;;;;5.76;46.78;102964.44;5029528;28;20337;-81
2024/01/21 11:32:27;;;;;;;7.97;4.28;;;;;;;5.74;46.20;102950.44;5027422;28;20057;-82
2024/01/21 11:35:16;;;;;;;8.52;3.50;;;;;;;5.75;45.85;102944.25;5027102;28;20052;-83
2024/01/21 11:37:52;;;;;;;7.88;4.30;;;;;;;5.91;45.78;102955.19;5016151;28;20139;-81
2024/01/21 11:40:26;;;;;;;6.32;3.40;;;;;;;6.18;45.56;102998.31;4991588;28;20044;-83
2024/01/21 11:42:53;;;;;;;9.45;3.63;;;;;;;6.19;44.75;103003.53;5027553;28;20303;-81